^^
Meteo Knjazevac Station Historical Data
Daily Summary for January 7, 2022 Units:  English    Metric   Both
Daily Weekly Monthly Yearly Custom
  High: Low: Average:
Temperature: 83.1 °F 59 °F 68.4 °F
Dew Point: 69.1 °F 58.6 °F 63.4 °F
Humidity: 99% 55% 86%
Wind Speed: 5mph 0mph 1.2mph
Wind Gust: 10mph - -
Wind- - SSE
Pressure: 30.09 in 29.95 in -
Precipitation: 0.00 in    
Historical Graphs
 
 
Tabular Data for January 7, 2022
Time Temperature Dew Point Pressure Wind Wind Speed Wind Gust Humidity Rainfall Rate (Hourly) solar Conditions
00:00 63.5 °F 61.7 °F 30.09 in Calm   2 mph 94% 0.00 in 0 W/m2
00:10 63.3 °F 61.9 °F 30.09 in North 1 mph 3 mph 95% 0.00 in 0 W/m2
00:20 63.3 °F 61.9 °F 30.09 in Calm   3 mph 95% 0.00 in 0 W/m2
00:30 63.1 °F 62 °F 30.09 in NNE 1 mph 4 mph 96% 0.00 in 0 W/m2
00:40 63.1 °F 62.3 °F 30.09 in Calm   2 mph 97% 0.00 in 0 W/m2
00:50 62.8 °F 61.3 °F 30.08 in Calm   2 mph 95% 0.00 in 0 W/m2
01:00 62.6 °F 61.4 °F 30.08 in WSW 1 mph 3 mph 96% 0.00 in 0 W/m2
01:10 62 °F 60.5 °F 30.08 in WSW 2 mph 3 mph 95% 0.00 in 0 W/m2
01:20 61.6 °F 60.5 °F 30.08 in NW 2 mph 3 mph 96% 0.00 in 0 W/m2
01:30 61.7 °F 61.4 °F 30.08 in Calm   3 mph 99% 0.00 in 0 W/m2
01:40 61.9 °F 61.6 °F 30.08 in Calm   2 mph 99% 0.00 in 0 W/m2
01:50 61.9 °F 61.6 °F 30.08 in Calm   3 mph 99% 0.00 in 0 W/m2
02:00 61.7 °F 61.1 °F 30.08 in Calm   2 mph 98% 0.00 in 0 W/m2
02:10 61.5 °F 61 °F 30.08 in Calm     98% 0.00 in 0 W/m2
02:20 61.3 °F 60.2 °F 30.08 in Calm   1 mph 96% 0.00 in 0 W/m2
02:30 61.3 °F 60.8 °F 30.08 in Calm     98% 0.00 in 0 W/m2
02:40 61.2 °F 60.6 °F 30.08 in WSW 2 mph 2 mph 98% 0.00 in 0 W/m2
02:50 61 °F 60.4 °F 30.08 in WSW 2 mph 5 mph 98% 0.00 in 0 W/m2
03:00 60.4 °F 59.9 °F 30.07 in WNW 2 mph 5 mph 98% 0.00 in 0 W/m2
03:10 60.4 °F 60.2 °F 30.07 in Calm   5 mph 99% 0.00 in 0 W/m2
03:20 60.4 °F 60.2 °F 30.07 in Calm   2 mph 99% 0.00 in 0 W/m2
03:30 60.3 °F 59.7 °F 30.07 in Calm     98% 0.00 in 0 W/m2
03:40 60.1 °F 59.5 °F 30.07 in Calm     98% 0.00 in 0 W/m2
03:50 59.7 °F 59.4 °F 30.07 in Calm   1 mph 99% 0.00 in 0 W/m2
04:00 59.7 °F 59.4 °F 30.07 in NNE 1 mph 2 mph 99% 0.00 in 0 W/m2
04:10 59.7 °F 59.4 °F 30.07 in Calm   2 mph 99% 0.00 in 0 W/m2
04:20 59.5 °F 59.2 °F 30.06 in Calm   1 mph 99% 0.00 in 0 W/m2
04:30 59.2 °F 58.6 °F 30.07 in Calm     98% 0.00 in 0 W/m2
04:40 59 °F 58.7 °F 30.07 in Calm     99% 0.00 in 0 W/m2
04:50 59 °F 58.7 °F 30.07 in Calm     99% 0.00 in 3 W/m2
05:00 59 °F 58.7 °F 30.07 in Calm   2 mph 99% 0.00 in 7 W/m2
05:10 59.2 °F 58.9 °F 30.07 in Calm     99% 0.00 in 12 W/m2
05:20 59.2 °F 58.9 °F 30.07 in Calm   2 mph 99% 0.00 in 17 W/m2
05:30 59.2 °F 58.9 °F 30.08 in Calm   2 mph 99% 0.00 in 23 W/m2
05:40 59.2 °F 58.9 °F 30.08 in NE 1 mph 3 mph 99% 0.00 in 25 W/m2
05:50 59.4 °F 59.1 °F 30.08 in NNE 2 mph 3 mph 99% 0.00 in 32 W/m2
06:00 59.7 °F 59.4 °F 30.08 in NNE 1 mph 3 mph 99% 0.00 in 65 W/m2
06:10 60.1 °F 59.8 °F 30.08 in Calm   2 mph 99% 0.00 in 48 W/m2
06:20 60.4 °F 60.2 °F 30.08 in Calm   2 mph 99% 0.00 in 55 W/m2
06:30 60.6 °F 60.3 °F 30.08 in NNE 1 mph 3 mph 99% 0.00 in 57 W/m2
06:40 60.8 °F 60.5 °F 30.08 in Calm   3 mph 99% 0.00 in 61 W/m2
06:50 61 °F 60.7 °F 30.08 in Calm   1 mph 99% 0.00 in 46 W/m2
07:00 61 °F 60.7 °F 30.09 in Calm   2 mph 99% 0.00 in 57 W/m2
07:10 61.2 °F 60.9 °F 30.09 in WNW 1 mph 2 mph 99% 0.00 in 66 W/m2
07:20 61.5 °F 61.2 °F 30.09 in West 1 mph 2 mph 99% 0.00 in 73 W/m2
07:30 61.7 °F 61.4 °F 30.09 in Calm   2 mph 99% 0.00 in 81 W/m2
07:40 61.8 °F 61.5 °F 30.09 in Calm   2 mph 99% 0.00 in 89 W/m2
07:50 62.1 °F 61.8 °F 30.09 in West 1 mph 2 mph 99% 0.00 in 117 W/m2
08:00 62.4 °F 62.1 °F 30.09 in Calm   2 mph 99% 0.00 in 139 W/m2
08:10 62.8 °F 62.5 °F 30.09 in SW 1 mph 3 mph 99% 0.00 in 185 W/m2
08:20 63.3 °F 63 °F 30.09 in SSW 2 mph 2 mph 99% 0.00 in 227 W/m2
08:30 63.8 °F 63.5 °F 30.09 in SSW 1 mph 2 mph 99% 0.00 in 209 W/m2
08:40 64.2 °F 63.6 °F 30.09 in SE 2 mph 4 mph 98% 0.00 in 188 W/m2
08:50 64.2 °F 63.6 °F 30.09 in NE 1 mph 4 mph 98% 0.00 in 278 W/m2
09:00 64.8 °F 64.2 °F 30.08 in East 1 mph 4 mph 98% 0.00 in 358 W/m2
09:10 65.6 °F 64.7 °F 30.08 in NE 1 mph 4 mph 97% 0.00 in 423 W/m2
09:20 66.2 °F 64.4 °F 30.08 in ESE 1 mph 4 mph 94% 0.00 in 386 W/m2
09:30 67.1 °F 65.3 °F 30.07 in ESE 2 mph 5 mph 94% 0.00 in 386 W/m2
09:40 67.9 °F 65.8 °F 30.07 in West 3 mph 7 mph 93% 0.00 in 577 W/m2
09:50 68.4 °F 65.6 °F 30.07 in WSW 1 mph 4 mph 91% 0.00 in 754 W/m2
10:00 69.2 °F 66.1 °F 30.06 in NNW 3 mph 6 mph 90% 0.00 in 807 W/m2
10:10 70.6 °F 66.9 °F 30.06 in WNW 2 mph 5 mph 88% 0.00 in 833 W/m2
10:20 71.8 °F 67.4 °F 30.06 in West 1 mph 6 mph 86% 0.00 in 837 W/m2
10:30 72.9 °F 67.7 °F 30.06 in WNW 2 mph 5 mph 84% 0.00 in 863 W/m2
10:40 73.4 °F 67.9 °F 30.05 in West 1 mph 5 mph 83% 0.00 in 167 W/m2
10:50 73.9 °F 68.1 °F 30.05 in SSW 1 mph 5 mph 82% 0.00 in 905 W/m2
11:00 74.5 °F 67.9 °F 30.04 in NNE 2 mph 5 mph 80% 0.00 in 918 W/m2
11:10 75.2 °F 67.9 °F 30.04 in South 2 mph 5 mph 78% 0.00 in 892 W/m2
11:20 75.9 °F 67.8 °F 30.04 in East 2 mph 6 mph 76% 0.00 in 941 W/m2
11:30 77 °F 68.4 °F 30.03 in NW 3 mph 6 mph 75% 0.00 in 951 W/m2
11:40 77.9 °F 68.5 °F 30.03 in NE 2 mph 9 mph 73% 0.00 in 958 W/m2
11:50 78.7 °F 69 °F 30.02 in North 2 mph 6 mph 72% 0.00 in 965 W/m2
12:00 79 °F 67.5 °F 30.02 in ENE 2 mph 9 mph 68% 0.00 in 970 W/m2
12:10 80.2 °F 69.1 °F 30.01 in NE 2 mph 9 mph 69% 0.00 in 850 W/m2
12:20 80.9 °F 68.9 °F 30.01 in NNW 2 mph 8 mph 67% 0.00 in 785 W/m2
12:30 81.9 °F 68.5 °F 30.00 in NE 3 mph 7 mph 64% 0.00 in 975 W/m2
12:40 82.4 °F 68.5 °F 30.00 in South 3 mph 6 mph 63% 0.00 in 974 W/m2
12:59 83.1 °F 67.8 °F 29.99 in WSW 1 mph 6 mph 60% 0.00 in 704 W/m2
13:00 83.1 °F 67.8 °F 29.99 in West 1 mph 7 mph 60% 0.00 in 189 W/m2
13:10 82.4 °F 67.2 °F 29.99 in NNE 2 mph 7 mph 60% 0.00 in 188 W/m2
13:20 82 °F 66.3 °F 29.99 in NNE 2 mph 5 mph 59% 0.00 in 238 W/m2
13:30 81.7 °F 67.4 °F 29.99 in North 1 mph 6 mph 62% 0.00 in 252 W/m2
13:40 81.7 °F 67.4 °F 29.98 in North 2 mph 7 mph 62% 0.00 in 327 W/m2
13:50 81.5 °F 66.3 °F 29.98 in NNE 1 mph 7 mph 60% 0.00 in 345 W/m2
14:00 81.5 °F 66.3 °F 29.97 in NNW 1 mph 7 mph 60% 0.00 in 666 W/m2
14:10 82.2 °F 66.9 °F 29.97 in NNE 3 mph 8 mph 60% 0.00 in 886 W/m2
14:20 82.9 °F 66.1 °F 29.97 in East 5 mph 8 mph 57% 0.00 in 570 W/m2
14:30 82.8 °F 66.5 °F 29.97 in ENE 3 mph 10 mph 58% 0.00 in 251 W/m2
14:40 82.4 °F 65.6 °F 29.97 in East 3 mph 10 mph 57% 0.00 in 346 W/m2
14:50 82.7 °F 66.4 °F 29.97 in East 2 mph 6 mph 58% 0.00 in 366 W/m2
15:00 82.9 °F 66.1 °F 29.96 in East 3 mph 6 mph 57% 0.00 in 805 W/m2
15:10 83.1 °F 66.3 °F 29.96 in ESE 1 mph 7 mph 57% 0.00 in 247 W/m2
15:20 82.6 °F 64.8 °F 29.96 in NNE 1 mph 10 mph 55% 0.00 in 235 W/m2
15:30 82.1 °F 65.8 °F 29.96 in NNE 2 mph 9 mph 58% 0.00 in 201 W/m2
15:40 82.2 °F 65.9 °F 29.95 in NNE 3 mph 7 mph 58% 0.00 in 565 W/m2
15:50 83.1 °F 66.3 °F 29.95 in North 2 mph 7 mph 57% 0.00 in 686 W/m2
Knjazevac, Serbia
Compliments of Weather Underground - 2 mb